sensor_id;sensor_type;location;lat;lon;timestamp;P1;durP1;ratioP1;P2;durP2;ratioP2
20320;SDS011;10318;47.674;9.052;2022-11-18T00:00:47;0.93;;;0.40;;
20320;SDS011;10318;47.674;9.052;2022-11-18T00:03:14;0.43;;;0.30;;
20320;SDS011;10318;47.674;9.052;2022-11-18T00:05:41;0.98;;;0.20;;
20320;SDS011;10318;47.674;9.052;2022-11-18T00:08:08;0.55;;;0.40;;
20320;SDS011;10318;47.674;9.052;2022-11-18T00:10:38;0.32;;;0.30;;
20320;SDS011;10318;47.674;9.052;2022-11-18T00:13:04;2.58;;;0.30;;
20320;SDS011;10318;47.674;9.052;2022-11-18T00:15:58;0.20;;;0.20;;
20320;SDS011;10318;47.674;9.052;2022-11-18T00:18:25;0.55;;;0.50;;
20320;SDS011;10318;47.674;9.052;2022-11-18T00:20:52;0.60;;;0.35;;
20320;SDS011;10318;47.674;9.052;2022-11-18T00:23:19;0.47;;;0.40;;
20320;SDS011;10318;47.674;9.052;2022-11-18T00:25:45;0.55;;;0.40;;
20320;SDS011;10318;47.674;9.052;2022-11-18T00:28:12;0.68;;;0.40;;
20320;SDS011;10318;47.674;9.052;2022-11-18T00:30:39;0.63;;;0.60;;
20320;SDS011;10318;47.674;9.052;2022-11-18T00:33:05;0.40;;;0.40;;
20320;SDS011;10318;47.674;9.052;2022-11-18T00:35:32;0.40;;;0.40;;
20320;SDS011;10318;47.674;9.052;2022-11-18T00:37:58;1.95;;;0.93;;
20320;SDS011;10318;47.674;9.052;2022-11-18T00:40:25;1.55;;;0.20;;
20320;SDS011;10318;47.674;9.052;2022-11-18T00:42:52;0.93;;;0.50;;
20320;SDS011;10318;47.674;9.052;2022-11-18T00:45:19;0.88;;;0.40;;
20320;SDS011;10318;47.674;9.052;2022-11-18T00:47:46;0.20;;;0.20;;
20320;SDS011;10318;47.674;9.052;2022-11-18T00:50:13;2.67;;;0.40;;
20320;SDS011;10318;47.674;9.052;2022-11-18T00:52:39;2.30;;;1.00;;
20320;SDS011;10318;47.674;9.052;2022-11-18T00:55:06;1.92;;;0.30;;
20320;SDS011;10318;47.674;9.052;2022-11-18T00:57:33;0.52;;;0.30;;
20320;SDS011;10318;47.674;9.052;2022-11-18T01:00:00;0.60;;;0.38;;
20320;SDS011;10318;47.674;9.052;2022-11-18T01:02:26;0.30;;;0.30;;
20320;SDS011;10318;47.674;9.052;2022-11-18T01:04:53;0.70;;;0.40;;
20320;SDS011;10318;47.674;9.052;2022-11-18T01:07:20;0.60;;;0.32;;
20320;SDS011;10318;47.674;9.052;2022-11-18T01:09:46;0.50;;;0.45;;
20320;SDS011;10318;47.674;9.052;2022-11-18T01:12:13;3.92;;;0.50;;
20320;SDS011;10318;47.674;9.052;2022-11-18T01:14:58;1.30;;;0.52;;
20320;SDS011;10318;47.674;9.052;2022-11-18T01:17:28;1.70;;;0.50;;
20320;SDS011;10318;47.674;9.052;2022-11-18T01:19:54;1.23;;;0.40;;
20320;SDS011;10318;47.674;9.052;2022-11-18T01:22:21;3.97;;;0.63;;
20320;SDS011;10318;47.674;9.052;2022-11-18T01:24:48;2.83;;;0.60;;
20320;SDS011;10318;47.674;9.052;2022-11-18T01:27:14;1.02;;;0.50;;
20320;SDS011;10318;47.674;9.052;2022-11-18T01:29:41;0.65;;;0.50;;
20320;SDS011;10318;47.674;9.052;2022-11-18T01:32:08;1.38;;;0.60;;
20320;SDS011;10318;47.674;9.052;2022-11-18T01:34:50;2.38;;;0.60;;
20320;SDS011;10318;47.674;9.052;2022-11-18T01:37:17;1.55;;;0.50;;
20320;SDS011;10318;47.674;9.052;2022-11-18T01:39:43;0.80;;;0.50;;
20320;SDS011;10318;47.674;9.052;2022-11-18T01:42:14;0.50;;;0.50;;
20320;SDS011;10318;47.674;9.052;2022-11-18T01:44:56;0.85;;;0.60;;
20320;SDS011;10318;47.674;9.052;2022-11-18T01:47:24;0.32;;;0.32;;
20320;SDS011;10318;47.674;9.052;2022-11-18T01:49:51;1.83;;;0.60;;
20320;SDS011;10318;47.674;9.052;2022-11-18T01:52:18;1.00;;;0.65;;
20320;SDS011;10318;47.674;9.052;2022-11-18T01:54:46;1.13;;;0.73;;
20320;SDS011;10318;47.674;9.052;2022-11-18T01:57:14;0.68;;;0.60;;
20320;SDS011;10318;47.674;9.052;2022-11-18T01:59:43;2.47;;;0.55;;
20320;SDS011;10318;47.674;9.052;2022-11-18T02:02:11;1.35;;;0.40;;
20320;SDS011;10318;47.674;9.052;2022-11-18T02:04:38;0.60;;;0.60;;
20320;SDS011;10318;47.674;9.052;2022-11-18T02:07:06;0.73;;;0.40;;
20320;SDS011;10318;47.674;9.052;2022-11-18T02:09:33;2.25;;;0.60;;
20320;SDS011;10318;47.674;9.052;2022-11-18T02:12:00;0.80;;;0.50;;
20320;SDS011;10318;47.674;9.052;2022-11-18T02:14:28;0.93;;;0.40;;
20320;SDS011;10318;47.674;9.052;2022-11-18T02:24:42;0.60;;;0.35;;
20320;SDS011;10318;47.674;9.052;2022-11-18T02:29:45;0.82;;;0.40;;
20320;SDS011;10318;47.674;9.052;2022-11-18T02:32:17;1.80;;;0.50;;
20320;SDS011;10318;47.674;9.052;2022-11-18T02:34:52;1.20;;;0.50;;
20320;SDS011;10318;47.674;9.052;2022-11-18T02:39:51;0.63;;;0.40;;
20320;SDS011;10318;47.674;9.052;2022-11-18T02:42:20;3.08;;;0.50;;
20320;SDS011;10318;47.674;9.052;2022-11-18T02:44:49;1.00;;;0.40;;
20320;SDS011;10318;47.674;9.052;2022-11-18T02:47:18;0.63;;;0.30;;
20320;SDS011;10318;47.674;9.052;2022-11-18T02:49:47;0.30;;;0.30;;
20320;SDS011;10318;47.674;9.052;2022-11-18T02:52:16;0.85;;;0.40;;
20320;SDS011;10318;47.674;9.052;2022-11-18T02:54:43;0.43;;;0.35;;
20320;SDS011;10318;47.674;9.052;2022-11-18T02:57:11;1.00;;;0.40;;
20320;SDS011;10318;47.674;9.052;2022-11-18T02:59:39;0.20;;;0.20;;
20320;SDS011;10318;47.674;9.052;2022-11-18T03:02:05;0.85;;;0.30;;
20320;SDS011;10318;47.674;9.052;2022-11-18T03:04:32;0.30;;;0.30;;
20320;SDS011;10318;47.674;9.052;2022-11-18T03:09:37;0.45;;;0.20;;
20320;SDS011;10318;47.674;9.052;2022-11-18T03:22:41;0.40;;;0.40;;
20320;SDS011;10318;47.674;9.052;2022-11-18T03:25:10;0.40;;;0.32;;
20320;SDS011;10318;47.674;9.052;2022-11-18T03:27:51;0.40;;;0.30;;
20320;SDS011;10318;47.674;9.052;2022-11-18T03:30:20;0.65;;;0.40;;
20320;SDS011;10318;47.674;9.052;2022-11-18T03:32:52;0.20;;;0.20;;
20320;SDS011;10318;47.674;9.052;2022-11-18T03:35:21;4.32;;;0.30;;
20320;SDS011;10318;47.674;9.052;2022-11-18T03:37:48;0.43;;;0.35;;
20320;SDS011;10318;47.674;9.052;2022-11-18T03:40:17;0.63;;;0.30;;
20320;SDS011;10318;47.674;9.052;2022-11-18T03:42:47;0.50;;;0.28;;
20320;SDS011;10318;47.674;9.052;2022-11-18T03:45:22;0.60;;;0.60;;
20320;SDS011;10318;47.674;9.052;2022-11-18T03:47:53;1.92;;;0.70;;
20320;SDS011;10318;47.674;9.052;2022-11-18T03:50:22;1.10;;;0.50;;
20320;SDS011;10318;47.674;9.052;2022-11-18T03:52:52;0.40;;;0.40;;
20320;SDS011;10318;47.674;9.052;2022-11-18T03:55:21;0.73;;;0.50;;
20320;SDS011;10318;47.674;9.052;2022-11-18T03:58:50;0.32;;;0.28;;
20320;SDS011;10318;47.674;9.052;2022-11-18T04:00:46;0.57;;;0.45;;
20320;SDS011;10318;47.674;9.052;2022-11-18T04:03:13;0.17;;;0.17;;
20320;SDS011;10318;47.674;9.052;2022-11-18T04:05:40;2.05;;;0.68;;
20320;SDS011;10318;47.674;9.052;2022-11-18T04:08:12;0.93;;;0.40;;
20320;SDS011;10318;47.674;9.052;2022-11-18T04:10:51;1.05;;;0.30;;
20320;SDS011;10318;47.674;9.052;2022-11-18T04:13:21;0.47;;;0.30;;
20320;SDS011;10318;47.674;9.052;2022-11-18T04:15:49;0.52;;;0.38;;
20320;SDS011;10318;47.674;9.052;2022-11-18T04:18:16;1.20;;;0.30;;
20320;SDS011;10318;47.674;9.052;2022-11-18T04:20:43;0.38;;;0.30;;
20320;SDS011;10318;47.674;9.052;2022-11-18T04:23:09;1.13;;;0.22;;
20320;SDS011;10318;47.674;9.052;2022-11-18T04:25:36;1.38;;;0.30;;
20320;SDS011;10318;47.674;9.052;2022-11-18T04:28:03;0.32;;;0.10;;
20320;SDS011;10318;47.674;9.052;2022-11-18T04:30:30;0.70;;;0.22;;
20320;SDS011;10318;47.674;9.052;2022-11-18T04:32:57;0.40;;;0.20;;
20320;SDS011;10318;47.674;9.052;2022-11-18T04:35:24;0.20;;;0.20;;
20320;SDS011;10318;47.674;9.052;2022-11-18T04:37:51;0.28;;;0.20;;
20320;SDS011;10318;47.674;9.052;2022-11-18T04:40:18;0.60;;;0.22;;
20320;SDS011;10318;47.674;9.052;2022-11-18T04:42:45;0.93;;;0.30;;
20320;SDS011;10318;47.674;9.052;2022-11-18T04:45:11;0.17;;;0.17;;
20320;SDS011;10318;47.674;9.052;2022-11-18T04:47:38;0.13;;;0.13;;
20320;SDS011;10318;47.674;9.052;2022-11-18T04:50:05;0.32;;;0.22;;
20320;SDS011;10318;47.674;9.052;2022-11-18T04:52:32;0.43;;;0.22;;
20320;SDS011;10318;47.674;9.052;2022-11-18T04:54:58;0.32;;;0.30;;
20320;SDS011;10318;47.674;9.052;2022-11-18T04:57:25;0.25;;;0.20;;
20320;SDS011;10318;47.674;9.052;2022-11-18T04:59:52;1.08;;;0.20;;
20320;SDS011;10318;47.674;9.052;2022-11-18T05:02:18;0.10;;;0.10;;
20320;SDS011;10318;47.674;9.052;2022-11-18T05:04:45;0.20;;;0.20;;
20320;SDS011;10318;47.674;9.052;2022-11-18T05:07:13;0.65;;;0.15;;
20320;SDS011;10318;47.674;9.052;2022-11-18T05:09:40;0.20;;;0.20;;
20320;SDS011;10318;47.674;9.052;2022-11-18T05:12:11;1.15;;;0.25;;
20320;SDS011;10318;47.674;9.052;2022-11-18T05:14:56;0.20;;;0.20;;
20320;SDS011;10318;47.674;9.052;2022-11-18T05:17:23;0.20;;;0.20;;
20320;SDS011;10318;47.674;9.052;2022-11-18T05:19:50;1.25;;;0.20;;
20320;SDS011;10318;47.674;9.052;2022-11-18T05:22:17;1.88;;;0.22;;
20320;SDS011;10318;47.674;9.052;2022-11-18T05:24:43;0.45;;;0.28;;
20320;SDS011;10318;47.674;9.052;2022-11-18T05:27:10;0.20;;;0.20;;
20320;SDS011;10318;47.674;9.052;2022-11-18T05:29:37;0.50;;;0.20;;
20320;SDS011;10318;47.674;9.052;2022-11-18T05:32:04;0.25;;;0.10;;
20320;SDS011;10318;47.674;9.052;2022-11-18T05:34:30;0.77;;;0.20;;
20320;SDS011;10318;47.674;9.052;2022-11-18T05:36:57;0.20;;;0.20;;
20320;SDS011;10318;47.674;9.052;2022-11-18T05:39:24;0.63;;;0.32;;
20320;SDS011;10318;47.674;9.052;2022-11-18T05:41:50;0.40;;;0.20;;
20320;SDS011;10318;47.674;9.052;2022-11-18T05:44:35;1.98;;;0.20;;
20320;SDS011;10318;47.674;9.052;2022-11-18T05:47:02;0.20;;;0.20;;
20320;SDS011;10318;47.674;9.052;2022-11-18T05:49:29;0.20;;;0.20;;
20320;SDS011;10318;47.674;9.052;2022-11-18T05:51:55;0.40;;;0.30;;
20320;SDS011;10318;47.674;9.052;2022-11-18T05:54:22;0.20;;;0.20;;
20320;SDS011;10318;47.674;9.052;2022-11-18T05:56:49;0.50;;;0.43;;
20320;SDS011;10318;47.674;9.052;2022-11-18T05:59:15;0.20;;;0.20;;
20320;SDS011;10318;47.674;9.052;2022-11-18T06:04:20;0.22;;;0.22;;
20320;SDS011;10318;47.674;9.052;2022-11-18T06:06:48;0.65;;;0.22;;
20320;SDS011;10318;47.674;9.052;2022-11-18T06:09:18;0.50;;;0.43;;
20320;SDS011;10318;47.674;9.052;2022-11-18T06:11:48;0.10;;;0.10;;
20320;SDS011;10318;47.674;9.052;2022-11-18T06:14:18;0.43;;;0.20;;
20320;SDS011;10318;47.674;9.052;2022-11-18T06:16:48;1.10;;;0.30;;
20320;SDS011;10318;47.674;9.052;2022-11-18T06:19:15;0.35;;;0.30;;
20320;SDS011;10318;47.674;9.052;2022-11-18T06:21:43;0.70;;;0.20;;
20320;SDS011;10318;47.674;9.052;2022-11-18T06:24:10;1.35;;;0.20;;
20320;SDS011;10318;47.674;9.052;2022-11-18T06:26:37;0.20;;;0.20;;
20320;SDS011;10318;47.674;9.052;2022-11-18T06:29:04;0.80;;;0.10;;
20320;SDS011;10318;47.674;9.052;2022-11-18T06:31:33;0.68;;;0.35;;
20320;SDS011;10318;47.674;9.052;2022-11-18T06:33:59;0.20;;;0.20;;
20320;SDS011;10318;47.674;9.052;2022-11-18T06:36:26;0.10;;;0.10;;
20320;SDS011;10318;47.674;9.052;2022-11-18T06:38:53;0.30;;;0.30;;
20320;SDS011;10318;47.674;9.052;2022-11-18T06:41:19;0.28;;;0.20;;
20320;SDS011;10318;47.674;9.052;2022-11-18T06:43:46;0.28;;;0.28;;
20320;SDS011;10318;47.674;9.052;2022-11-18T06:46:14;0.75;;;0.30;;
20320;SDS011;10318;47.674;9.052;2022-11-18T06:49:00;0.85;;;0.30;;
20320;SDS011;10318;47.674;9.052;2022-11-18T06:51:26;0.30;;;0.30;;
20320;SDS011;10318;47.674;9.052;2022-11-18T06:53:53;0.20;;;0.20;;
20320;SDS011;10318;47.674;9.052;2022-11-18T06:56:21;0.32;;;0.20;;
20320;SDS011;10318;47.674;9.052;2022-11-18T06:58:51;0.40;;;0.40;;
20320;SDS011;10318;47.674;9.052;2022-11-18T07:01:19;0.85;;;0.45;;
20320;SDS011;10318;47.674;9.052;2022-11-18T07:03:48;0.35;;;0.22;;
20320;SDS011;10318;47.674;9.052;2022-11-18T07:06:17;1.70;;;0.40;;
20320;SDS011;10318;47.674;9.052;2022-11-18T07:08:46;0.20;;;0.20;;
20320;SDS011;10318;47.674;9.052;2022-11-18T07:11:14;0.52;;;0.52;;
20320;SDS011;10318;47.674;9.052;2022-11-18T07:13:41;1.60;;;0.50;;
20320;SDS011;10318;47.674;9.052;2022-11-18T07:16:13;0.60;;;0.30;;
20320;SDS011;10318;47.674;9.052;2022-11-18T07:18:41;0.85;;;0.60;;
20320;SDS011;10318;47.674;9.052;2022-11-18T07:21:18;3.03;;;0.75;;
20320;SDS011;10318;47.674;9.052;2022-11-18T07:23:45;1.23;;;1.00;;
20320;SDS011;10318;47.674;9.052;2022-11-18T07:26:12;2.25;;;1.00;;
20320;SDS011;10318;47.674;9.052;2022-11-18T07:28:39;1.60;;;1.40;;
20320;SDS011;10318;47.674;9.052;2022-11-18T07:31:07;1.30;;;1.02;;
20320;SDS011;10318;47.674;9.052;2022-11-18T07:33:35;0.63;;;0.63;;
20320;SDS011;10318;47.674;9.052;2022-11-18T07:36:02;1.48;;;0.60;;
20320;SDS011;10318;47.674;9.052;2022-11-18T07:38:29;1.05;;;0.70;;
20320;SDS011;10318;47.674;9.052;2022-11-18T07:41:03;0.30;;;0.30;;
20320;SDS011;10318;47.674;9.052;2022-11-18T07:43:30;1.10;;;0.35;;
20320;SDS011;10318;47.674;9.052;2022-11-18T07:45:57;0.30;;;0.30;;
20320;SDS011;10318;47.674;9.052;2022-11-18T07:48:24;2.72;;;0.30;;
20320;SDS011;10318;47.674;9.052;2022-11-18T07:50:50;2.13;;;0.40;;
20320;SDS011;10318;47.674;9.052;2022-11-18T07:53:17;0.50;;;0.30;;
20320;SDS011;10318;47.674;9.052;2022-11-18T07:55:44;0.20;;;0.20;;
20320;SDS011;10318;47.674;9.052;2022-11-18T07:58:11;0.65;;;0.40;;
20320;SDS011;10318;47.674;9.052;2022-11-18T08:00:37;0.43;;;0.32;;
20320;SDS011;10318;47.674;9.052;2022-11-18T08:03:04;0.20;;;0.20;;
20320;SDS011;10318;47.674;9.052;2022-11-18T08:05:31;0.93;;;0.32;;
20320;SDS011;10318;47.674;9.052;2022-11-18T08:07:58;0.20;;;0.20;;
20320;SDS011;10318;47.674;9.052;2022-11-18T08:10:25;1.73;;;0.30;;
20320;SDS011;10318;47.674;9.052;2022-11-18T08:12:52;1.02;;;0.30;;
20320;SDS011;10318;47.674;9.052;2022-11-18T08:15:18;0.30;;;0.30;;
20320;SDS011;10318;47.674;9.052;2022-11-18T08:17:45;0.20;;;0.20;;
20320;SDS011;10318;47.674;9.052;2022-11-18T08:20:11;0.30;;;0.30;;
20320;SDS011;10318;47.674;9.052;2022-11-18T08:22:38;0.38;;;0.20;;
20320;SDS011;10318;47.674;9.052;2022-11-18T08:25:05;3.70;;;0.60;;
20320;SDS011;10318;47.674;9.052;2022-11-18T08:27:32;1.60;;;0.32;;
20320;SDS011;10318;47.674;9.052;2022-11-18T08:29:59;0.32;;;0.30;;
20320;SDS011;10318;47.674;9.052;2022-11-18T08:32:25;0.80;;;0.52;;
20320;SDS011;10318;47.674;9.052;2022-11-18T08:34:52;0.35;;;0.35;;
20320;SDS011;10318;47.674;9.052;2022-11-18T08:37:19;1.58;;;0.95;;
20320;SDS011;10318;47.674;9.052;2022-11-18T08:39:46;0.98;;;0.50;;
20320;SDS011;10318;47.674;9.052;2022-11-18T08:42:12;0.40;;;0.30;;
20320;SDS011;10318;47.674;9.052;2022-11-18T08:44:39;0.30;;;0.30;;
20320;SDS011;10318;47.674;9.052;2022-11-18T08:47:05;0.20;;;0.20;;
20320;SDS011;10318;47.674;9.052;2022-11-18T08:49:32;0.85;;;0.50;;
20320;SDS011;10318;47.674;9.052;2022-11-18T08:51:59;1.75;;;0.40;;
20320;SDS011;10318;47.674;9.052;2022-11-18T08:54:26;1.75;;;0.40;;
20320;SDS011;10318;47.674;9.052;2022-11-18T08:56:52;0.40;;;0.30;;
20320;SDS011;10318;47.674;9.052;2022-11-18T08:59:19;1.88;;;0.40;;
20320;SDS011;10318;47.674;9.052;2022-11-18T09:01:47;1.38;;;0.60;;
20320;SDS011;10318;47.674;9.052;2022-11-18T09:04:13;0.93;;;0.40;;
20320;SDS011;10318;47.674;9.052;2022-11-18T09:06:40;3.35;;;0.50;;
20320;SDS011;10318;47.674;9.052;2022-11-18T09:09:07;0.85;;;0.30;;
20320;SDS011;10318;47.674;9.052;2022-11-18T09:11:34;2.50;;;0.47;;
20320;SDS011;10318;47.674;9.052;2022-11-18T09:14:02;1.35;;;0.40;;
20320;SDS011;10318;47.674;9.052;2022-11-18T09:16:49;3.13;;;0.40;;
20320;SDS011;10318;47.674;9.052;2022-11-18T09:19:16;0.68;;;0.38;;
20320;SDS011;10318;47.674;9.052;2022-11-18T09:22:03;0.55;;;0.40;;
20320;SDS011;10318;47.674;9.052;2022-11-18T09:24:31;0.63;;;0.50;;
20320;SDS011;10318;47.674;9.052;2022-11-18T09:26:57;0.70;;;0.40;;
20320;SDS011;10318;47.674;9.052;2022-11-18T09:29:24;0.75;;;0.40;;
20320;SDS011;10318;47.674;9.052;2022-11-18T09:31:52;2.58;;;0.50;;
20320;SDS011;10318;47.674;9.052;2022-11-18T09:34:19;1.05;;;0.47;;
20320;SDS011;10318;47.674;9.052;2022-11-18T09:36:46;1.05;;;0.70;;
20320;SDS011;10318;47.674;9.052;2022-11-18T09:39:12;1.33;;;0.68;;
20320;SDS011;10318;47.674;9.052;2022-11-18T09:49:28;7.53;;;2.53;;
20320;SDS011;10318;47.674;9.052;2022-11-18T09:51:56;4.90;;;1.85;;
20320;SDS011;10318;47.674;9.052;2022-11-18T09:54:23;6.10;;;2.40;;
20320;SDS011;10318;47.674;9.052;2022-11-18T09:56:52;3.35;;;1.80;;
20320;SDS011;10318;47.674;9.052;2022-11-18T09:59:20;1.67;;;0.73;;
20320;SDS011;10318;47.674;9.052;2022-11-18T10:01:47;4.57;;;2.40;;
20320;SDS011;10318;47.674;9.052;2022-11-18T10:04:16;3.35;;;1.08;;
20320;SDS011;10318;47.674;9.052;2022-11-18T10:06:43;3.33;;;1.00;;
20320;SDS011;10318;47.674;9.052;2022-11-18T10:09:32;4.05;;;1.10;;
20320;SDS011;10318;47.674;9.052;2022-11-18T10:17:46;0.88;;;0.70;;
20320;SDS011;10318;47.674;9.052;2022-11-18T10:20:24;2.67;;;1.40;;
20320;SDS011;10318;47.674;9.052;2022-11-18T10:23:07;1.77;;;0.70;;
20320;SDS011;10318;47.674;9.052;2022-11-18T10:25:38;1.13;;;0.60;;
20320;SDS011;10318;47.674;9.052;2022-11-18T10:30:40;0.82;;;0.60;;
20320;SDS011;10318;47.674;9.052;2022-11-18T10:35:48;1.73;;;0.63;;
20320;SDS011;10318;47.674;9.052;2022-11-18T10:41:05;2.40;;;0.50;;
20320;SDS011;10318;47.674;9.052;2022-11-18T10:43:49;2.28;;;0.30;;
20320;SDS011;10318;47.674;9.052;2022-11-18T10:46:24;0.88;;;0.38;;
20320;SDS011;10318;47.674;9.052;2022-11-18T10:56:43;0.60;;;0.50;;
20320;SDS011;10318;47.674;9.052;2022-11-18T10:59:15;2.15;;;0.50;;
20320;SDS011;10318;47.674;9.052;2022-11-18T11:01:43;0.43;;;0.43;;
20320;SDS011;10318;47.674;9.052;2022-11-18T11:04:22;0.40;;;0.40;;
20320;SDS011;10318;47.674;9.052;2022-11-18T11:06:50;1.35;;;0.52;;
20320;SDS011;10318;47.674;9.052;2022-11-18T11:14:36;0.30;;;0.30;;
20320;SDS011;10318;47.674;9.052;2022-11-18T11:19:51;1.10;;;0.50;;
20320;SDS011;10318;47.674;9.052;2022-11-18T11:22:21;0.40;;;0.40;;
20320;SDS011;10318;47.674;9.052;2022-11-18T11:24:47;2.28;;;0.50;;
20320;SDS011;10318;47.674;9.052;2022-11-18T11:30:17;1.42;;;0.43;;
20320;SDS011;10318;47.674;9.052;2022-11-18T11:35:24;0.20;;;0.20;;
20320;SDS011;10318;47.674;9.052;2022-11-18T11:37:59;0.57;;;0.43;;
20320;SDS011;10318;47.674;9.052;2022-11-18T11:43:08;2.15;;;0.40;;
20320;SDS011;10318;47.674;9.052;2022-11-18T11:46:10;0.77;;;0.50;;
20320;SDS011;10318;47.674;9.052;2022-11-18T11:59:10;0.60;;;0.40;;
20320;SDS011;10318;47.674;9.052;2022-11-18T12:06:56;0.30;;;0.30;;
20320;SDS011;10318;47.674;9.052;2022-11-18T12:12:01;0.50;;;0.50;;
20320;SDS011;10318;47.674;9.052;2022-11-18T12:19:41;0.75;;;0.60;;
20320;SDS011;10318;47.674;9.052;2022-11-18T12:22:07;1.42;;;1.00;;
20320;SDS011;10318;47.674;9.052;2022-11-18T12:24:35;2.17;;;0.90;;
20320;SDS011;10318;47.674;9.052;2022-11-18T12:34:43;1.67;;;0.82;;
20320;SDS011;10318;47.674;9.052;2022-11-18T12:37:44;0.65;;;0.50;;
20320;SDS011;10318;47.674;9.052;2022-11-18T12:40:03;0.50;;;0.50;;
20320;SDS011;10318;47.674;9.052;2022-11-18T12:42:48;0.75;;;0.52;;
20320;SDS011;10318;47.674;9.052;2022-11-18T12:50:53;1.05;;;0.50;;
20320;SDS011;10318;47.674;9.052;2022-11-18T12:55:56;3.30;;;0.45;;
20320;SDS011;10318;47.674;9.052;2022-11-18T12:58:27;0.93;;;0.50;;
20320;SDS011;10318;47.674;9.052;2022-11-18T13:01:03;1.35;;;0.50;;
20320;SDS011;10318;47.674;9.052;2022-11-18T13:03:31;0.68;;;0.40;;
20320;SDS011;10318;47.674;9.052;2022-11-18T13:05:59;0.63;;;0.40;;
20320;SDS011;10318;47.674;9.052;2022-11-18T13:08:29;0.63;;;0.32;;
20320;SDS011;10318;47.674;9.052;2022-11-18T13:10:57;1.38;;;0.40;;
20320;SDS011;10318;47.674;9.052;2022-11-18T13:13:46;0.75;;;0.38;;
20320;SDS011;10318;47.674;9.052;2022-11-18T13:16:16;0.40;;;0.40;;
20320;SDS011;10318;47.674;9.052;2022-11-18T13:19:04;0.50;;;0.40;;
20320;SDS011;10318;47.674;9.052;2022-11-18T13:21:30;1.35;;;0.45;;
20320;SDS011;10318;47.674;9.052;2022-11-18T13:24:20;0.75;;;0.30;;
20320;SDS011;10318;47.674;9.052;2022-11-18T13:26:47;0.63;;;0.45;;
20320;SDS011;10318;47.674;9.052;2022-11-18T13:32:19;0.43;;;0.32;;
20320;SDS011;10318;47.674;9.052;2022-11-18T13:34:48;0.30;;;0.30;;
20320;SDS011;10318;47.674;9.052;2022-11-18T13:37:26;0.47;;;0.30;;
20320;SDS011;10318;47.674;9.052;2022-11-18T13:39:53;1.95;;;0.35;;
20320;SDS011;10318;47.674;9.052;2022-11-18T13:42:25;0.32;;;0.30;;
20320;SDS011;10318;47.674;9.052;2022-11-18T13:44:55;0.30;;;0.30;;
20320;SDS011;10318;47.674;9.052;2022-11-18T13:55:20;0.22;;;0.22;;
20320;SDS011;10318;47.674;9.052;2022-11-18T13:57:48;0.30;;;0.30;;
20320;SDS011;10318;47.674;9.052;2022-11-18T14:00:23;2.00;;;0.60;;
20320;SDS011;10318;47.674;9.052;2022-11-18T14:05:38;2.67;;;0.50;;
20320;SDS011;10318;47.674;9.052;2022-11-18T14:08:05;0.40;;;0.40;;
20320;SDS011;10318;47.674;9.052;2022-11-18T14:10:42;3.03;;;0.50;;
20320;SDS011;10318;47.674;9.052;2022-11-18T14:13:16;1.02;;;0.85;;
20320;SDS011;10318;47.674;9.052;2022-11-18T14:15:43;1.55;;;0.52;;
20320;SDS011;10318;47.674;9.052;2022-11-18T14:18:18;0.80;;;0.57;;
20320;SDS011;10318;47.674;9.052;2022-11-18T14:20:49;1.75;;;0.43;;
20320;SDS011;10318;47.674;9.052;2022-11-18T14:23:17;0.50;;;0.40;;
20320;SDS011;10318;47.674;9.052;2022-11-18T14:25:44;0.88;;;0.30;;
20320;SDS011;10318;47.674;9.052;2022-11-18T14:31:04;0.50;;;0.30;;
20320;SDS011;10318;47.674;9.052;2022-11-18T14:33:33;0.50;;;0.47;;
20320;SDS011;10318;47.674;9.052;2022-11-18T14:36:01;0.50;;;0.50;;
20320;SDS011;10318;47.674;9.052;2022-11-18T14:38:30;0.60;;;0.50;;
20320;SDS011;10318;47.674;9.052;2022-11-18T14:41:18;1.00;;;0.80;;
20320;SDS011;10318;47.674;9.052;2022-11-18T14:44:09;0.70;;;0.40;;
20320;SDS011;10318;47.674;9.052;2022-11-18T14:46:38;1.42;;;0.60;;
20320;SDS011;10318;47.674;9.052;2022-11-18T14:49:09;1.77;;;0.90;;
20320;SDS011;10318;47.674;9.052;2022-11-18T14:51:37;1.00;;;0.50;;
20320;SDS011;10318;47.674;9.052;2022-11-18T14:54:04;1.27;;;0.40;;
20320;SDS011;10318;47.674;9.052;2022-11-18T14:56:30;1.15;;;0.50;;
20320;SDS011;10318;47.674;9.052;2022-11-18T14:58:58;1.23;;;0.50;;
20320;SDS011;10318;47.674;9.052;2022-11-18T15:01:25;0.95;;;0.40;;
20320;SDS011;10318;47.674;9.052;2022-11-18T15:03:56;0.75;;;0.40;;
20320;SDS011;10318;47.674;9.052;2022-11-18T15:06:23;0.85;;;0.40;;
20320;SDS011;10318;47.674;9.052;2022-11-18T15:08:50;2.17;;;0.50;;
20320;SDS011;10318;47.674;9.052;2022-11-18T15:11:17;1.30;;;0.70;;
20320;SDS011;10318;47.674;9.052;2022-11-18T15:13:47;0.80;;;0.70;;
20320;SDS011;10318;47.674;9.052;2022-11-18T15:16:15;1.88;;;1.20;;
20320;SDS011;10318;47.674;9.052;2022-11-18T15:18:42;4.43;;;2.83;;
20320;SDS011;10318;47.674;9.052;2022-11-18T15:21:09;2.30;;;1.80;;
20320;SDS011;10318;47.674;9.052;2022-11-18T15:23:36;1.90;;;1.02;;
20320;SDS011;10318;47.674;9.052;2022-11-18T15:26:11;2.25;;;1.08;;
20320;SDS011;10318;47.674;9.052;2022-11-18T15:28:40;2.40;;;1.40;;
20320;SDS011;10318;47.674;9.052;2022-11-18T15:31:06;2.17;;;1.00;;
20320;SDS011;10318;47.674;9.052;2022-11-18T15:33:33;3.55;;;0.80;;
20320;SDS011;10318;47.674;9.052;2022-11-18T15:36:00;1.00;;;0.47;;
20320;SDS011;10318;47.674;9.052;2022-11-18T15:38:26;1.85;;;0.65;;
20320;SDS011;10318;47.674;9.052;2022-11-18T15:40:53;1.50;;;0.90;;
20320;SDS011;10318;47.674;9.052;2022-11-18T15:43:22;1.38;;;0.60;;
20320;SDS011;10318;47.674;9.052;2022-11-18T15:45:55;2.22;;;0.50;;
20320;SDS011;10318;47.674;9.052;2022-11-18T15:48:21;1.67;;;0.70;;
20320;SDS011;10318;47.674;9.052;2022-11-18T15:50:48;2.42;;;0.50;;
20320;SDS011;10318;47.674;9.052;2022-11-18T15:53:19;1.92;;;0.70;;
20320;SDS011;10318;47.674;9.052;2022-11-18T15:55:46;1.50;;;0.77;;
20320;SDS011;10318;47.674;9.052;2022-11-18T15:58:13;1.60;;;0.75;;
20320;SDS011;10318;47.674;9.052;2022-11-18T16:00:42;0.82;;;0.40;;
20320;SDS011;10318;47.674;9.052;2022-11-18T16:03:10;1.88;;;0.63;;
20320;SDS011;10318;47.674;9.052;2022-11-18T16:05:37;1.75;;;0.90;;
20320;SDS011;10318;47.674;9.052;2022-11-18T16:08:04;6.25;;;2.92;;
20320;SDS011;10318;47.674;9.052;2022-11-18T16:10:30;4.60;;;2.25;;
20320;SDS011;10318;47.674;9.052;2022-11-18T16:13:19;1.50;;;1.00;;
20320;SDS011;10318;47.674;9.052;2022-11-18T16:15:46;2.40;;;1.60;;
20320;SDS011;10318;47.674;9.052;2022-11-18T16:18:15;1.83;;;0.90;;
20320;SDS011;10318;47.674;9.052;2022-11-18T16:20:44;2.33;;;1.00;;
20320;SDS011;10318;47.674;9.052;2022-11-18T16:23:11;0.75;;;0.63;;
20320;SDS011;10318;47.674;9.052;2022-11-18T16:25:42;4.22;;;1.52;;
20320;SDS011;10318;47.674;9.052;2022-11-18T16:28:08;2.30;;;1.10;;
20320;SDS011;10318;47.674;9.052;2022-11-18T16:30:35;2.55;;;0.88;;
20320;SDS011;10318;47.674;9.052;2022-11-18T16:33:20;3.15;;;0.63;;
20320;SDS011;10318;47.674;9.052;2022-11-18T16:35:47;1.33;;;0.70;;
20320;SDS011;10318;47.674;9.052;2022-11-18T16:38:14;1.23;;;0.63;;
20320;SDS011;10318;47.674;9.052;2022-11-18T16:40:41;1.10;;;0.60;;
20320;SDS011;10318;47.674;9.052;2022-11-18T16:43:07;1.40;;;0.50;;
20320;SDS011;10318;47.674;9.052;2022-11-18T16:45:34;3.08;;;2.05;;
20320;SDS011;10318;47.674;9.052;2022-11-18T16:48:00;2.13;;;1.13;;
20320;SDS011;10318;47.674;9.052;2022-11-18T16:50:27;4.75;;;1.75;;
20320;SDS011;10318;47.674;9.052;2022-11-18T16:52:54;3.25;;;1.58;;
20320;SDS011;10318;47.674;9.052;2022-11-18T16:55:21;1.50;;;0.63;;
20320;SDS011;10318;47.674;9.052;2022-11-18T16:57:47;2.95;;;1.70;;
20320;SDS011;10318;47.674;9.052;2022-11-18T17:00:14;2.38;;;0.95;;
20320;SDS011;10318;47.674;9.052;2022-11-18T17:02:41;0.50;;;0.50;;
20320;SDS011;10318;47.674;9.052;2022-11-18T17:05:08;1.67;;;0.85;;
20320;SDS011;10318;47.674;9.052;2022-11-18T17:07:35;4.55;;;2.35;;
20320;SDS011;10318;47.674;9.052;2022-11-18T17:10:04;2.88;;;0.80;;